createdAt,value
2019-02-19T00:01:53.910Z,58.74
2019-02-19T00:04:22.393Z,58.84
2019-02-19T00:06:50.870Z,58.83
2019-02-19T00:09:19.290Z,58.83
2019-02-19T00:11:47.814Z,58.88
2019-02-19T00:14:16.628Z,58.96
2019-02-19T00:16:45.151Z,58.93
2019-02-19T00:19:13.648Z,59.00
2019-02-19T00:21:42.222Z,59.06
2019-02-19T00:24:10.659Z,59.20
2019-02-19T00:26:39.106Z,59.36
2019-02-19T00:29:07.586Z,59.32
2019-02-19T00:31:36.064Z,59.38
2019-02-19T00:34:04.552Z,59.43
2019-02-19T00:36:33.302Z,59.53
2019-02-19T00:39:01.768Z,59.65
2019-02-19T00:41:30.240Z,59.75
2019-02-19T00:43:58.822Z,59.78
2019-02-19T00:46:27.360Z,59.77
2019-02-19T00:48:55.805Z,59.91
2019-02-19T00:51:24.599Z,59.95
2019-02-19T00:53:53.200Z,60.11
2019-02-19T00:56:21.759Z,60.24
2019-02-19T00:58:50.209Z,60.37
2019-02-19T01:01:18.637Z,60.52
2019-02-19T01:03:47.328Z,60.77
2019-02-19T01:06:15.760Z,60.66
2019-02-19T01:08:44.393Z,60.85
2019-02-19T01:11:12.880Z,60.92
2019-02-19T01:13:41.539Z,61.20
2019-02-19T01:16:10.719Z,61.50
2019-02-19T01:18:39.793Z,61.68
2019-02-19T01:21:08.278Z,61.95
2019-02-19T01:23:37.161Z,62.06
2019-02-19T01:26:05.631Z,62.27
2019-02-19T01:28:34.158Z,62.44
2019-02-19T01:31:02.660Z,62.71
2019-02-19T01:33:31.468Z,62.71
2019-02-19T01:35:59.950Z,62.71
2019-02-19T01:38:28.465Z,62.88
2019-02-19T01:40:57.020Z,62.94
2019-02-19T01:43:25.461Z,63.18
2019-02-19T01:45:53.953Z,63.26
2019-02-19T01:48:22.380Z,63.41
2019-02-19T01:50:51.034Z,63.68
2019-02-19T01:53:19.441Z,63.93
2019-02-19T01:55:47.906Z,64.13
2019-02-19T01:58:16.363Z,64.29
2019-02-19T02:00:44.923Z,64.63
2019-02-19T02:03:13.375Z,65.19
2019-02-19T02:05:41.893Z,65.71
2019-02-19T02:08:10.631Z,66.05
2019-02-19T02:10:39.119Z,66.31
2019-02-19T02:13:07.706Z,66.48
2019-02-19T02:15:42.547Z,66.47
2019-02-19T02:18:06.521Z,66.65
2019-02-19T02:20:35.109Z,66.88
2019-02-19T02:23:03.556Z,67.03
2019-02-19T02:25:32.096Z,67.00
2019-02-19T02:28:00.536Z,67.06
2019-02-19T02:30:29.563Z,67.14
2019-02-19T02:32:58.079Z,67.35
2019-02-19T02:35:26.602Z,67.38
2019-02-19T02:37:55.125Z,67.66
2019-02-19T02:40:23.586Z,67.66
2019-02-19T02:42:52.081Z,67.57
2019-02-19T02:45:20.545Z,67.68
2019-02-19T02:47:48.986Z,67.76
2019-02-19T02:50:17.441Z,67.77
2019-02-19T02:52:45.965Z,68.04
2019-02-19T02:55:14.448Z,68.21
2019-02-19T02:57:43.001Z,68.27
2019-02-19T03:00:12.736Z,68.21
2019-02-19T03:02:41.193Z,68.29
2019-02-19T03:05:09.764Z,68.36
2019-02-19T03:07:39.917Z,68.61
2019-02-19T03:10:08.487Z,68.81
2019-02-19T03:12:37.141Z,69.09
2019-02-19T03:15:07.300Z,69.65
2019-02-19T03:17:35.785Z,69.77
2019-02-19T03:20:05.955Z,69.82
2019-02-19T03:22:34.469Z,69.98
2019-02-19T03:25:03.355Z,70.22
2019-02-19T03:27:31.865Z,70.41
2019-02-19T03:30:00.297Z,70.66
2019-02-19T03:32:28.885Z,70.85
2019-02-19T03:34:57.487Z,70.95
2019-02-19T03:37:26.011Z,71.12
2019-02-19T03:39:54.501Z,71.32
2019-02-19T03:42:23.209Z,71.69
2019-02-19T03:44:51.832Z,72.08
2019-02-19T03:47:20.349Z,72.34
2019-02-19T03:49:48.873Z,72.52
2019-02-19T03:52:17.329Z,72.68
2019-02-19T03:54:45.927Z,72.65
2019-02-19T03:57:14.653Z,72.87
2019-02-19T03:59:43.286Z,72.99
2019-02-19T04:02:11.839Z,72.93
2019-02-19T04:04:40.530Z,73.11
2019-02-19T04:07:09.023Z,73.26
2019-02-19T04:09:37.625Z,73.41
2019-02-19T04:12:06.126Z,73.58
2019-02-19T04:14:34.640Z,73.71
2019-02-19T04:17:03.071Z,73.79
2019-02-19T04:19:31.567Z,73.95
2019-02-19T04:21:59.985Z,74.10
2019-02-19T04:24:28.565Z,74.24
2019-02-19T04:26:57.053Z,74.39
2019-02-19T04:29:25.546Z,74.52
2019-02-19T04:31:54.423Z,74.61
2019-02-19T04:34:22.867Z,74.66
2019-02-19T04:36:51.571Z,74.80
2019-02-19T04:39:20.040Z,74.92
2019-02-19T04:41:48.607Z,75.02
2019-02-19T04:44:17.080Z,75.33
2019-02-19T04:46:46.077Z,75.49
2019-02-19T04:49:14.531Z,75.44
2019-02-19T04:51:43.123Z,75.58
2019-02-19T04:54:11.553Z,75.70
2019-02-19T04:56:40.022Z,75.80
2019-02-19T04:59:08.691Z,76.03
2019-02-19T05:01:37.142Z,76.23
2019-02-19T05:04:05.769Z,76.49
2019-02-19T05:06:34.217Z,76.60
2019-02-19T05:09:02.649Z,76.64
2019-02-19T05:11:31.098Z,76.62
2019-02-19T05:13:59.593Z,76.75
2019-02-19T05:16:28.175Z,76.73
2019-02-19T05:18:56.697Z,76.71
2019-02-19T05:21:25.333Z,76.95
2019-02-19T05:23:53.830Z,77.05
2019-02-19T05:26:22.423Z,77.07
2019-02-19T05:28:50.949Z,76.98
2019-02-19T05:31:19.678Z,76.99
2019-02-19T05:33:48.104Z,76.92
2019-02-19T05:36:16.619Z,76.98
2019-02-19T05:38:45.057Z,77.20
2019-02-19T05:41:13.593Z,77.22
2019-02-19T05:43:42.089Z,77.17
2019-02-19T05:46:10.578Z,77.30
2019-02-19T05:48:39.054Z,77.43
2019-02-19T05:51:07.546Z,77.51
2019-02-19T05:53:36.002Z,77.42
2019-02-19T05:56:04.612Z,77.37
2019-02-19T05:58:33.086Z,77.34
2019-02-19T06:01:01.570Z,77.30
2019-02-19T06:03:30.081Z,77.18
2019-02-19T06:05:58.528Z,77.24
2019-02-19T06:08:26.968Z,77.41
2019-02-19T06:10:55.733Z,77.44
2019-02-19T06:13:24.262Z,77.41
2019-02-19T06:15:52.909Z,77.45
2019-02-19T06:18:21.435Z,77.44
2019-02-19T06:20:50.018Z,77.38
2019-02-19T06:23:18.462Z,77.40
2019-02-19T06:25:46.895Z,77.43
2019-02-19T06:28:15.529Z,77.48
2019-02-19T06:30:44.036Z,77.51
2019-02-19T06:33:12.575Z,77.58
2019-02-19T06:35:41.002Z,77.71
2019-02-19T06:38:09.535Z,77.84
2019-02-19T06:40:38.029Z,77.90
2019-02-19T06:43:06.527Z,77.95
2019-02-19T06:45:35.027Z,78.01
2019-02-19T06:48:03.562Z,78.01
2019-02-19T06:50:32.153Z,77.97
2019-02-19T06:53:00.632Z,77.84
2019-02-19T06:55:29.160Z,77.86
2019-02-19T06:57:57.734Z,77.99
2019-02-19T07:00:26.439Z,78.07
2019-02-19T07:03:05.518Z,78.11
2019-02-19T07:05:33.997Z,78.21
2019-02-19T07:08:02.444Z,78.23
2019-02-19T07:10:31.047Z,78.31
2019-02-19T07:12:59.471Z,78.41
2019-02-19T07:15:28.107Z,78.49
2019-02-19T07:17:56.704Z,78.58
2019-02-19T07:20:25.235Z,78.77
2019-02-19T07:22:53.659Z,78.85
2019-02-19T07:25:22.129Z,78.85
2019-02-19T07:27:50.623Z,78.92
2019-02-19T07:30:19.137Z,79.07
2019-02-19T07:32:47.599Z,79.16
2019-02-19T07:35:16.054Z,79.11
2019-02-19T07:37:44.562Z,79.18
2019-02-19T07:40:13.404Z,79.12
2019-02-19T07:42:41.840Z,79.17
2019-02-19T07:45:12.169Z,79.25
2019-02-19T07:47:40.624Z,79.31
2019-02-19T07:50:12.500Z,79.40
2019-02-19T07:52:41.040Z,79.46
2019-02-19T07:55:10.739Z,79.52
2019-02-19T07:57:39.305Z,79.58
2019-02-19T08:00:10.915Z,79.63
2019-02-19T08:02:39.439Z,79.62
2019-02-19T08:05:08.388Z,79.67
2019-02-19T08:07:36.919Z,79.70
2019-02-19T08:10:10.505Z,79.64
2019-02-19T08:12:38.968Z,79.77
2019-02-19T08:15:09.944Z,79.81
2019-02-19T08:17:39.413Z,79.83
2019-02-19T08:20:15.347Z,79.80
2019-02-19T08:22:39.707Z,79.76
2019-02-19T08:25:08.275Z,79.81
2019-02-19T08:27:36.713Z,79.87
2019-02-19T08:30:07.843Z,79.81
2019-02-19T08:32:36.313Z,79.87
2019-02-19T08:35:05.680Z,79.81
2019-02-19T08:37:34.179Z,79.79
2019-02-19T08:40:02.624Z,79.79
2019-02-19T08:42:31.281Z,79.87
2019-02-19T08:44:59.682Z,79.78
2019-02-19T08:47:28.215Z,79.69
2019-02-19T08:49:58.072Z,79.57
2019-02-19T08:52:26.689Z,79.34
2019-02-19T08:54:55.210Z,79.07
2019-02-19T08:57:23.771Z,78.93
2019-02-19T08:59:52.291Z,78.62
2019-02-19T09:02:20.863Z,78.37
2019-02-19T09:04:49.298Z,77.96
2019-02-19T09:07:17.803Z,77.57
2019-02-19T09:09:46.348Z,77.27
2019-02-19T09:12:14.919Z,76.64
2019-02-19T09:14:43.552Z,76.37
2019-02-19T09:17:12.170Z,76.54
2019-02-19T09:19:40.676Z,76.30
2019-02-19T09:22:09.107Z,75.94
2019-02-19T09:24:39.897Z,75.47
2019-02-19T09:27:08.314Z,75.25
2019-02-19T09:29:37.016Z,74.53
2019-02-19T09:32:05.442Z,74.46
2019-02-19T09:34:33.974Z,74.28
2019-02-19T09:37:02.431Z,73.95
2019-02-19T09:39:30.929Z,73.89
2019-02-19T09:41:59.659Z,73.50
2019-02-19T09:44:28.281Z,72.90
2019-02-19T09:46:56.766Z,72.57
2019-02-19T09:49:25.396Z,72.31
2019-02-19T09:51:53.999Z,71.97
2019-02-19T09:54:22.524Z,71.57
2019-02-19T09:56:51.024Z,70.51
2019-02-19T09:59:19.496Z,70.25
2019-02-19T10:01:47.925Z,70.18
2019-02-19T10:04:16.611Z,69.92
2019-02-19T10:06:45.108Z,69.76
2019-02-19T10:09:13.694Z,68.24
2019-02-19T10:11:42.300Z,68.13
2019-02-19T10:14:10.826Z,67.90
2019-02-19T10:16:41.719Z,67.52
2019-02-19T10:19:09.526Z,66.25
2019-02-19T10:21:38.013Z,65.54
2019-02-19T10:24:06.506Z,65.08
2019-02-19T10:26:35.034Z,64.37
2019-02-19T10:29:03.896Z,64.37
2019-02-19T10:31:32.361Z,64.71
2019-02-19T10:34:00.806Z,65.04
2019-02-19T10:36:29.344Z,64.64
2019-02-19T10:38:57.830Z,64.56
2019-02-19T10:41:26.501Z,62.31
2019-02-19T10:43:55.096Z,62.31
2019-02-19T10:46:23.578Z,62.56
2019-02-19T10:48:52.005Z,62.31
2019-02-19T10:51:20.802Z,63.03
2019-02-19T10:53:49.220Z,62.30
2019-02-19T10:56:17.899Z,62.31
2019-02-19T10:58:46.560Z,61.91
2019-02-19T11:01:15.470Z,62.33
2019-02-19T11:03:43.890Z,61.79
2019-02-19T11:06:12.480Z,61.56
2019-02-19T11:08:40.925Z,60.86
2019-02-19T11:11:09.453Z,60.26
2019-02-19T11:13:38.070Z,60.17
2019-02-19T11:16:06.798Z,60.15
2019-02-19T11:18:35.283Z,60.03
2019-02-19T11:21:03.835Z,59.28
2019-02-19T11:23:33.739Z,60.07
2019-02-19T11:26:02.474Z,59.22
2019-02-19T11:28:31.057Z,59.38
2019-02-19T11:30:59.616Z,59.55
2019-02-19T11:33:28.079Z,59.10
2019-02-19T11:35:56.528Z,58.59
2019-02-19T11:38:25.060Z,58.04
2019-02-19T11:40:53.535Z,58.05
2019-02-19T11:43:22.025Z,57.93
2019-02-19T11:45:50.455Z,58.46
2019-02-19T11:48:19.219Z,58.14
2019-02-19T11:50:47.672Z,58.50
2019-02-19T11:53:16.311Z,57.26
2019-02-19T11:55:44.719Z,57.62
2019-02-19T11:58:13.406Z,56.44
2019-02-19T12:00:43.627Z,56.04
2019-02-19T12:03:12.158Z,55.81
2019-02-19T12:05:40.674Z,54.99
2019-02-19T12:08:09.136Z,55.46
2019-02-19T12:10:38.108Z,55.19
2019-02-19T12:13:06.811Z,55.56
2019-02-19T12:15:35.671Z,55.73
2019-02-19T12:18:04.122Z,55.51
2019-02-19T12:20:32.649Z,54.65
2019-02-19T12:23:01.092Z,54.67
2019-02-19T12:25:29.690Z,54.84
2019-02-19T12:27:58.168Z,55.17
2019-02-19T12:30:26.708Z,55.67
2019-02-19T12:32:55.139Z,55.90
2019-02-19T12:35:23.734Z,56.16
2019-02-19T12:37:52.155Z,55.21
2019-02-19T12:40:21.239Z,55.17
2019-02-19T12:42:49.751Z,54.78
2019-02-19T12:45:18.234Z,55.11
2019-02-19T12:47:46.740Z,53.97
2019-02-19T12:50:19.390Z,54.19
2019-02-19T12:52:47.908Z,54.71
2019-02-19T12:55:16.529Z,54.26
2019-02-19T12:57:45.055Z,53.40
2019-02-19T13:00:16.609Z,52.95
2019-02-19T13:02:45.110Z,52.74
2019-02-19T13:05:14.864Z,51.41
2019-02-19T13:07:43.464Z,49.70
2019-02-19T13:10:12.611Z,49.90
2019-02-19T13:12:41.319Z,47.29
2019-02-19T13:15:14.756Z,46.95
2019-02-19T13:17:43.239Z,47.90
2019-02-19T13:20:15.883Z,48.59
2019-02-19T13:22:44.430Z,48.93
2019-02-19T13:25:13.273Z,49.03
2019-02-19T13:27:41.875Z,49.69
2019-02-19T13:30:15.770Z,49.80
2019-02-19T13:32:44.472Z,50.29
2019-02-19T13:35:13.657Z,50.99
2019-02-19T13:37:42.119Z,51.00
2019-02-19T13:40:13.048Z,50.90
2019-02-19T13:42:41.568Z,49.85
2019-02-19T13:45:14.877Z,48.91
2019-02-19T13:47:43.479Z,49.00
2019-02-19T13:50:20.709Z,48.21
2019-02-19T13:52:50.964Z,48.45
2019-02-19T13:55:21.573Z,47.67
2019-02-19T13:57:50.059Z,48.02
2019-02-19T14:00:20.512Z,48.85
2019-02-19T14:02:49.100Z,49.51
2019-02-19T14:05:17.613Z,49.74
2019-02-19T14:07:46.131Z,50.04
2019-02-19T14:10:14.655Z,49.96
2019-02-19T14:12:43.102Z,49.17
2019-02-19T14:15:25.939Z,49.18
2019-02-19T14:17:54.574Z,49.08
2019-02-19T14:20:27.458Z,49.25
2019-02-19T14:23:13.450Z,49.01
2019-02-19T14:25:49.907Z,48.95
2019-02-19T14:28:26.018Z,48.30
2019-02-19T14:31:01.561Z,48.15
2019-02-19T14:33:50.078Z,48.90
2019-02-19T14:36:20.140Z,48.49
2019-02-19T14:38:56.151Z,45.90
2019-02-19T14:41:43.026Z,44.23
2019-02-19T14:44:19.198Z,45.27
2019-02-19T14:46:51.713Z,47.01
2019-02-19T14:49:34.035Z,47.38
2019-02-19T14:51:56.367Z,48.04
2019-02-19T14:54:32.778Z,48.40
2019-02-19T14:57:02.923Z,49.04
2019-02-19T14:59:33.026Z,49.37
2019-02-19T15:02:03.099Z,49.74
2019-02-19T15:04:49.639Z,50.21
2019-02-19T15:07:37.879Z,50.34
2019-02-19T15:10:25.114Z,50.41
2019-02-19T15:13:04.425Z,50.91
2019-02-19T15:15:46.923Z,51.05
2019-02-19T15:18:20.011Z,51.19
2019-02-19T15:20:52.891Z,51.15
2019-02-19T15:23:25.983Z,50.64
2019-02-19T15:25:56.140Z,50.84
2019-02-19T15:28:38.431Z,51.30
2019-02-19T15:31:24.669Z,51.36
2019-02-19T15:33:54.854Z,51.74
2019-02-19T15:36:41.476Z,52.00
2019-02-19T15:39:20.731Z,51.98
2019-02-19T15:42:09.362Z,52.00
2019-02-19T15:44:54.691Z,52.30
2019-02-19T15:47:24.799Z,52.54
2019-02-19T15:50:01.098Z,52.52
2019-02-19T15:52:37.396Z,52.49
2019-02-19T15:55:23.988Z,52.62
2019-02-19T15:58:12.451Z,52.51
2019-02-19T16:00:48.256Z,52.86
2019-02-19T16:03:24.132Z,52.85
2019-02-19T16:05:54.407Z,53.20
2019-02-19T16:08:39.708Z,53.36
2019-02-19T16:11:12.992Z,53.52
2019-02-19T16:14:00.858Z,53.59
2019-02-19T16:16:47.301Z,53.80
2019-02-19T16:19:17.517Z,54.58
2019-02-19T16:21:47.592Z,54.57
2019-02-19T16:24:24.158Z,54.57
2019-02-19T16:27:00.230Z,54.49
2019-02-19T16:29:42.555Z,54.65
2019-02-19T16:32:21.726Z,54.97
2019-02-19T16:34:54.607Z,55.32
2019-02-19T16:37:37.202Z,55.41
2019-02-19T16:40:08.541Z,55.72
2019-02-19T16:42:38.601Z,55.76
2019-02-19T16:45:22.307Z,55.99
2019-02-19T16:47:54.914Z,56.28
2019-02-19T16:50:25.221Z,56.22
2019-02-19T16:53:13.757Z,56.54
2019-02-19T16:56:00.502Z,56.66
2019-02-19T16:58:30.698Z,56.73
2019-02-19T17:01:03.939Z,56.92
2019-02-19T17:03:34.248Z,57.01
2019-02-19T17:06:07.538Z,57.15
2019-02-19T17:08:40.565Z,57.25
2019-02-19T17:11:10.713Z,57.35
2019-02-19T17:13:58.318Z,57.54
2019-02-19T17:16:33.516Z,57.71
2019-02-19T17:19:09.879Z,57.75
2019-02-19T17:21:40.073Z,57.99
2019-02-19T17:24:15.986Z,58.28
2019-02-19T17:26:52.254Z,58.25
2019-02-19T17:29:22.335Z,58.38
2019-02-19T17:32:01.288Z,58.50
2019-02-19T17:34:34.318Z,58.72
2019-02-19T17:37:07.136Z,58.64
2019-02-19T17:39:43.211Z,58.69
2019-02-19T17:42:13.505Z,58.96
2019-02-19T17:44:46.598Z,59.01
2019-02-19T17:47:28.804Z,59.17
2019-02-19T17:50:08.063Z,59.21
2019-02-19T17:52:38.171Z,59.25
2019-02-19T17:55:19.967Z,59.44
2019-02-19T17:57:50.133Z,59.64
2019-02-19T18:00:26.624Z,59.65
2019-02-19T18:02:56.896Z,59.63
2019-02-19T18:05:26.951Z,59.71
2019-02-19T18:08:02.909Z,59.97
2019-02-19T18:10:35.869Z,60.04
2019-02-19T18:13:15.157Z,60.03
2019-02-19T18:16:03.357Z,60.01
2019-02-19T18:18:45.465Z,60.01
2019-02-19T18:21:13.906Z,60.15
2019-02-19T18:23:42.385Z,60.08
2019-02-19T18:26:10.840Z,60.16
2019-02-19T18:28:39.342Z,60.33
2019-02-19T18:31:07.825Z,60.35
2019-02-19T18:33:36.881Z,60.50
2019-02-19T18:36:05.541Z,60.55
2019-02-19T18:38:34.128Z,60.65
2019-02-19T18:41:02.824Z,60.78
2019-02-19T18:43:31.356Z,60.91
2019-02-19T18:45:59.773Z,60.76
2019-02-19T18:48:28.432Z,60.75
2019-02-19T18:50:58.535Z,60.69
2019-02-19T18:53:27.256Z,60.84
2019-02-19T18:55:56.062Z,60.98
2019-02-19T18:58:24.629Z,61.03
2019-02-19T19:00:53.165Z,61.20
2019-02-19T19:03:21.765Z,61.44
2019-02-19T19:05:50.437Z,61.53
2019-02-19T19:08:18.947Z,61.56
2019-02-19T19:10:47.469Z,61.63
2019-02-19T19:13:15.909Z,61.73
2019-02-19T19:15:44.383Z,61.81
2019-02-19T19:18:12.958Z,61.96
2019-02-19T19:20:41.488Z,61.99
2019-02-19T19:23:10.096Z,62.02
2019-02-19T19:25:38.557Z,62.21
2019-02-19T19:28:08.497Z,62.30
2019-02-19T19:30:37.246Z,62.38
2019-02-19T19:33:05.682Z,62.48
2019-02-19T19:35:34.217Z,62.44
2019-02-19T19:38:02.673Z,62.61
2019-02-19T19:40:31.154Z,62.59
2019-02-19T19:42:59.856Z,62.71
2019-02-19T19:45:28.502Z,62.70
2019-02-19T19:47:57.042Z,62.87
2019-02-19T19:50:25.526Z,62.94
2019-02-19T19:52:54.141Z,62.92
2019-02-19T19:55:22.648Z,62.96
2019-02-19T19:57:51.566Z,63.02
2019-02-19T20:00:20.831Z,63.17
2019-02-19T20:02:49.307Z,63.24
2019-02-19T20:05:17.816Z,63.34
2019-02-19T20:07:46.374Z,63.33
2019-02-19T20:10:15.683Z,63.46
2019-02-19T20:12:44.176Z,63.32
2019-02-19T20:15:13.175Z,63.47
2019-02-19T20:17:41.718Z,63.62
2019-02-19T20:20:11.614Z,63.70
2019-02-19T20:22:40.259Z,63.75
2019-02-19T20:25:11.055Z,63.75
2019-02-19T20:27:39.680Z,63.75
2019-02-19T20:30:13.191Z,63.68
2019-02-19T20:32:41.914Z,63.76
2019-02-19T20:35:11.171Z,63.89
2019-02-19T20:37:39.888Z,64.05
2019-02-19T20:40:10.123Z,63.92
2019-02-19T20:42:38.616Z,64.04
2019-02-19T20:45:11.649Z,64.07
2019-02-19T20:47:40.247Z,64.20
2019-02-19T20:50:10.654Z,64.32
2019-02-19T20:52:39.390Z,64.40
2019-02-19T20:55:10.922Z,64.58
2019-02-19T20:57:39.602Z,64.69
2019-02-19T21:00:16.704Z,64.78
2019-02-19T21:02:45.304Z,64.93
2019-02-19T21:05:13.921Z,65.03
2019-02-19T21:07:42.475Z,65.21
2019-02-19T21:10:16.598Z,65.20
2019-02-19T21:12:45.175Z,65.28
2019-02-19T21:15:14.075Z,65.36
2019-02-19T21:17:42.671Z,65.57
2019-02-19T21:20:12.396Z,65.63
2019-02-19T21:22:40.892Z,65.77
2019-02-19T21:25:11.001Z,65.84
2019-02-19T21:27:39.591Z,65.89
2019-02-19T21:30:13.697Z,65.97
2019-02-19T21:32:42.223Z,66.20
2019-02-19T21:35:11.016Z,66.28
2019-02-19T21:37:39.478Z,66.31
2019-02-19T21:40:12.440Z,66.35
2019-02-19T21:42:41.012Z,66.58
2019-02-19T21:45:14.876Z,66.60
2019-02-19T21:47:43.433Z,66.74
2019-02-19T21:50:14.895Z,66.68
2019-02-19T21:52:43.275Z,66.87
2019-02-19T21:55:12.922Z,66.97
2019-02-19T21:57:41.360Z,66.87
2019-02-19T22:00:18.800Z,66.94
2019-02-19T22:02:47.479Z,67.06
2019-02-19T22:05:16.116Z,66.96
2019-02-19T22:07:44.603Z,66.93
2019-02-19T22:10:16.441Z,66.99
2019-02-19T22:12:44.937Z,67.01
2019-02-19T22:15:14.601Z,67.08
2019-02-19T22:17:43.133Z,67.28
2019-02-19T22:20:16.055Z,67.46
2019-02-19T22:22:44.608Z,67.39
2019-02-19T22:25:13.010Z,67.53
2019-02-19T22:27:41.965Z,67.48
2019-02-19T22:30:10.761Z,67.57
2019-02-19T22:32:39.457Z,67.70
2019-02-19T22:35:08.168Z,67.68
2019-02-19T22:37:36.780Z,67.64
2019-02-19T22:40:07.542Z,67.72
2019-02-19T22:42:36.079Z,67.75
2019-02-19T22:45:06.310Z,67.96
2019-02-19T22:47:34.791Z,67.92
2019-02-19T22:50:03.914Z,67.92
2019-02-19T22:52:32.446Z,68.05
2019-02-19T22:55:08.649Z,67.94
2019-02-19T22:57:37.221Z,67.71
2019-02-19T23:00:10.343Z,67.66
2019-02-19T23:02:38.879Z,67.58
2019-02-19T23:05:07.565Z,67.51
2019-02-19T23:07:36.057Z,67.54
2019-02-19T23:10:06.093Z,67.50
2019-02-19T23:12:35.008Z,67.61
2019-02-19T23:15:03.609Z,67.77
2019-02-19T23:17:32.147Z,67.70
2019-02-19T23:20:00.600Z,67.70
2019-02-19T23:22:29.029Z,67.76
2019-02-19T23:24:57.574Z,67.65
2019-02-19T23:27:25.999Z,67.78
2019-02-19T23:29:54.870Z,67.92
2019-02-19T23:32:23.284Z,68.02
2019-02-19T23:34:53.413Z,68.17
2019-02-19T23:37:21.850Z,68.15
2019-02-19T23:39:50.560Z,68.11
2019-02-19T23:42:19.010Z,68.28
2019-02-19T23:44:47.616Z,68.16
2019-02-19T23:47:16.220Z,68.08
2019-02-19T23:49:44.673Z,68.25
2019-02-19T23:52:13.280Z,68.43
2019-02-19T23:54:41.733Z,68.30
2019-02-19T23:57:10.205Z,68.18
2019-02-19T23:59:38.747Z,68.18
